Time;durP1;ratioP1;P1;durP2;ratioP2;P2;SDS_P1;SDS_P2;PMS_P1;PMS_P2;Temp;Humidity;BMP_temperature;BMP_pressure;BME280_temperature;BME280_humidity;BME280_pressure;Samples;Min_cycle;Max_cycle;Signal;HPM_P1;HPM_P2
2021/08/04 00:01:17;;;;;;;11.17;8.27;;;;;;;;;;5116513;28;20280;-81
2021/08/04 00:03:45;;;;;;;11.40;8.97;;;;;;;;;;5117080;28;20289;-82
2021/08/04 00:06:12;;;;;;;10.20;8.50;;;;;;;;;;5116852;28;20316;-82
2021/08/04 00:08:39;;;;;;;10.67;8.57;;;;;;;;;;5115969;28;20751;-82
2021/08/04 00:11:06;;;;;;;9.80;8.37;;;;;;;;;;5117197;28;20289;-82
2021/08/04 00:13:35;;;;;;;9.97;8.27;;;;;;;;;;5116063;28;20663;-82
2021/08/04 00:16:02;;;;;;;11.30;8.63;;;;;;;;;;5115716;28;20240;-82
2021/08/04 00:18:29;;;;;;;10.63;8.90;;;;;;;;;;5115902;28;20234;-82
2021/08/04 00:20:57;;;;;;;9.43;8.20;;;;;;;;;;5115477;28;20383;-82
2021/08/04 00:23:24;;;;;;;10.87;9.13;;;;;;;;;;5115817;28;20225;-82
2021/08/04 00:25:52;;;;;;;11.13;8.80;;;;;;;;;;5115823;28;20386;-82
2021/08/04 00:28:19;;;;;;;10.87;8.90;;;;;;;;;;5115410;28;20248;-82
2021/08/04 00:30:48;;;;;;;10.40;9.30;;;;;;;;;;5115084;28;20229;-82
2021/08/04 00:33:15;;;;;;;10.20;9.20;;;;;;;;;;5114586;28;20296;-81
2021/08/04 00:35:42;;;;;;;12.30;9.07;;;;;;;;;;5115132;28;20196;-82
2021/08/04 00:38:11;;;;;;;10.87;8.73;;;;;;;;;;5115362;28;20200;-83
2021/08/04 00:40:38;;;;;;;11.17;8.90;;;;;;;;;;5115540;28;20201;-82
2021/08/04 00:43:06;;;;;;;11.17;8.63;;;;;;;;;;5115736;28;20214;-82
2021/08/04 00:45:34;;;;;;;9.47;8.50;;;;;;;;;;5115782;28;20193;-82
2021/08/04 00:48:02;;;;;;;12.47;9.13;;;;;;;;;;5115624;28;20241;-82
2021/08/04 00:50:29;;;;;;;10.80;8.83;;;;;;;;;;5115286;28;20635;-82
2021/08/04 00:52:57;;;;;;;10.70;8.53;;;;;;;;;;5115344;28;20260;-82
2021/08/04 00:55:25;;;;;;;12.07;8.87;;;;;;;;;;5115183;27;20229;-82
2021/08/04 00:57:52;;;;;;;11.37;9.37;;;;;;;;;;5115200;28;20293;-82
2021/08/04 01:00:19;;;;;;;10.27;8.83;;;;;;;;;;5115261;28;20632;-82
2021/08/04 01:02:51;;;;;;;11.37;8.83;;;;;;;;;;5115611;28;20252;-82
2021/08/04 01:05:23;;;;;;;12.17;8.97;;;;;;;;;;5115073;27;20285;-82
2021/08/04 01:07:53;;;;;;;11.23;9.10;;;;;;;;;;5115348;27;20760;-82
2021/08/04 01:10:23;;;;;;;12.93;9.27;;;;;;;;;;5115276;28;20716;-82
2021/08/04 01:12:57;;;;;;;11.93;9.80;;;;;;;;;;5114952;28;20739;-82
2021/08/04 01:15:25;;;;;;;12.63;9.63;;;;;;;;;;5115377;28;20914;-82
2021/08/04 01:17:53;;;;;;;10.80;9.23;;;;;;;;;;5115661;28;20289;-81
2021/08/04 01:20:24;;;;;;;11.33;9.23;;;;;;;;;;5115756;28;20673;-81
2021/08/04 01:22:58;;;;;;;12.43;9.60;;;;;;;;;;5114575;28;20284;-81
2021/08/04 01:25:30;;;;;;;13.50;9.03;;;;;;;;;;5113823;28;20221;-81
2021/08/04 01:28:19;;;;;;;12.10;9.30;;;;;;;;;;5114485;28;20212;-81
2021/08/04 01:30:47;;;;;;;10.97;8.87;;;;;;;;;;5114898;28;20204;-81
2021/08/04 01:33:15;;;;;;;12.53;9.17;;;;;;;;;;5114768;28;20204;-81
2021/08/04 01:35:43;;;;;;;12.73;9.30;;;;;;;;;;5114348;28;20260;-81
2021/08/04 01:38:11;;;;;;;10.50;8.90;;;;;;;;;;5114462;28;20240;-82
2021/08/04 01:40:39;;;;;;;11.00;9.00;;;;;;;;;;5114279;28;20201;-82
2021/08/04 01:43:08;;;;;;;12.33;9.20;;;;;;;;;;5121261;27;20590;-81
2021/08/04 01:45:35;;;;;;;11.63;8.73;;;;;;;;;;5134637;27;20224;-81
2021/08/04 01:48:03;;;;;;;11.20;8.87;;;;;;;;;;5134659;27;20288;-82
2021/08/04 01:50:30;;;;;;;9.80;8.23;;;;;;;;;;5134771;27;20277;-82
2021/08/04 01:52:58;;;;;;;11.70;8.77;;;;;;;;;;5134681;27;20316;-82
2021/08/04 01:55:25;;;;;;;11.83;8.40;;;;;;;;;;5134666;27;20307;-81
2021/08/04 01:57:53;;;;;;;11.37;7.93;;;;;;;;;;5134730;27;20228;-82
2021/08/04 02:00:21;;;;;;;12.50;8.60;;;;;;;;;;5134000;27;20284;-82
2021/08/04 02:02:48;;;;;;;12.40;8.30;;;;;;;;;;5134548;27;20284;-81
2021/08/04 02:05:16;;;;;;;12.03;8.67;;;;;;;;;;5134462;27;20309;-81
2021/08/04 02:07:54;;;;;;;9.70;8.30;;;;;;;;;;5130966;27;20293;-82
2021/08/04 02:10:24;;;;;;;12.33;8.77;;;;;;;;;;5114004;28;20261;-81
2021/08/04 02:12:53;;;;;;;12.60;8.80;;;;;;;;;;5113403;28;20255;-81
2021/08/04 02:15:22;;;;;;;10.93;8.80;;;;;;;;;;5113478;28;20308;-81
2021/08/04 02:17:52;;;;;;;10.97;9.00;;;;;;;;;;5113154;28;20284;-81
2021/08/04 02:20:21;;;;;;;13.80;9.50;;;;;;;;;;5112720;28;20300;-81
2021/08/04 02:22:50;;;;;;;10.67;8.50;;;;;;;;;;5113238;28;20704;-82
2021/08/04 02:25:18;;;;;;;10.20;7.83;;;;;;;;;;5113610;28;20281;-81
2021/08/04 02:27:47;;;;;;;10.53;7.93;;;;;;;;;;5113310;28;20281;-81
2021/08/04 02:30:16;;;;;;;11.30;8.17;;;;;;;;;;5114634;28;20550;-81
2021/08/04 02:32:45;;;;;;;10.03;8.13;;;;;;;;;;5117930;27;20248;-81
2021/08/04 02:35:12;;;;;;;10.27;8.67;;;;;;;;;;5117963;27;20316;-81
2021/08/04 02:37:40;;;;;;;11.23;7.87;;;;;;;;;;5117621;28;20232;-82
2021/08/04 02:40:09;;;;;;;12.17;8.50;;;;;;;;;;5117425;28;20589;-81
2021/08/04 02:42:38;;;;;;;11.60;8.80;;;;;;;;;;5117359;28;20226;-81
2021/08/04 02:45:08;;;;;;;11.53;8.33;;;;;;;;;;5118402;28;20265;-82
2021/08/04 02:47:37;;;;;;;12.13;8.90;;;;;;;;;;5118813;28;20284;-81
2021/08/04 02:50:08;;;;;;;12.97;9.67;;;;;;;;;;5118517;28;20296;-81
2021/08/04 02:52:37;;;;;;;12.57;9.03;;;;;;;;;;5117674;28;20264;-81
2021/08/04 02:55:06;;;;;;;14.57;9.17;;;;;;;;;;5118435;28;20309;-82
2021/08/04 02:57:35;;;;;;;13.50;8.63;;;;;;;;;;5118116;28;20196;-81
2021/08/04 03:00:04;;;;;;;13.70;9.27;;;;;;;;;;5118506;28;20288;-82
2021/08/04 03:02:33;;;;;;;13.30;9.00;;;;;;;;;;5118522;28;20309;-81
2021/08/04 03:05:02;;;;;;;14.20;9.30;;;;;;;;;;5117967;28;20209;-82
2021/08/04 03:07:32;;;;;;;12.30;9.30;;;;;;;;;;5118231;28;20311;-81
2021/08/04 03:10:01;;;;;;;14.10;9.10;;;;;;;;;;5118259;28;20272;-82
2021/08/04 03:12:31;;;;;;;12.30;8.87;;;;;;;;;;5118161;28;20289;-82
2021/08/04 03:15:01;;;;;;;11.93;9.07;;;;;;;;;;5115553;27;20314;-81
2021/08/04 03:17:30;;;;;;;11.27;8.57;;;;;;;;;;5115418;28;20226;-82
2021/08/04 03:20:00;;;;;;;10.77;8.70;;;;;;;;;;5115162;28;20284;-82
2021/08/04 03:22:29;;;;;;;11.73;9.27;;;;;;;;;;5115203;28;20720;-81
2021/08/04 03:24:58;;;;;;;11.87;9.80;;;;;;;;;;5115413;28;20229;-82
2021/08/04 03:27:27;;;;;;;12.30;9.30;;;;;;;;;;5115091;27;20601;-82
2021/08/04 03:29:55;;;;;;;13.07;9.87;;;;;;;;;;5115363;28;20280;-81
2021/08/04 03:32:23;;;;;;;12.13;9.57;;;;;;;;;;5115006;28;20228;-82
2021/08/04 03:34:52;;;;;;;13.97;10.20;;;;;;;;;;5114915;28;20220;-82
2021/08/04 03:37:20;;;;;;;13.33;9.60;;;;;;;;;;5115086;28;20284;-82
2021/08/04 03:39:48;;;;;;;12.87;9.17;;;;;;;;;;5115170;28;20257;-82
2021/08/04 03:42:18;;;;;;;12.10;9.37;;;;;;;;;;5114978;28;20201;-82
2021/08/04 03:44:46;;;;;;;12.77;9.80;;;;;;;;;;5119958;27;20276;-81
2021/08/04 03:47:14;;;;;;;13.77;8.70;;;;;;;;;;5135583;27;20284;-82
2021/08/04 03:49:42;;;;;;;10.30;8.30;;;;;;;;;;5135185;27;20292;-82
2021/08/04 03:52:11;;;;;;;13.70;8.20;;;;;;;;;;5135401;27;20296;-82
2021/08/04 03:54:39;;;;;;;11.37;8.50;;;;;;;;;;5135439;27;20235;-82
2021/08/04 03:57:08;;;;;;;11.97;8.07;;;;;;;;;;5135266;27;20241;-82
2021/08/04 03:59:37;;;;;;;13.17;8.50;;;;;;;;;;5135330;27;20363;-83
2021/08/04 04:02:06;;;;;;;12.00;8.10;;;;;;;;;;5135421;27;20201;-82
2021/08/04 04:04:34;;;;;;;9.27;8.00;;;;;;;;;;5135311;27;20246;-82
2021/08/04 04:07:02;;;;;;;10.40;7.87;;;;;;;;;;5135026;27;20232;-82
2021/08/04 04:09:30;;;;;;;8.97;7.33;;;;;;;;;;5134531;27;20255;-82
2021/08/04 04:11:59;;;;;;;11.43;7.37;;;;;;;;;;5115727;27;20292;-82
2021/08/04 04:14:27;;;;;;;9.67;7.03;;;;;;;;;;5114647;28;20292;-83
2021/08/04 04:16:59;;;;;;;10.30;6.83;;;;;;;;;;5114104;28;20667;-82
2021/08/04 04:19:29;;;;;;;7.53;6.60;;;;;;;;;;5114203;28;20721;-82
2021/08/04 04:21:59;;;;;;;9.77;6.80;;;;;;;;;;5114153;27;20289;-82
2021/08/04 04:24:31;;;;;;;9.47;6.30;;;;;;;;;;5114167;27;20288;-82
2021/08/04 04:27:03;;;;;;;7.07;6.30;;;;;;;;;;5114183;28;20643;-82
2021/08/04 04:29:37;;;;;;;8.10;6.67;;;;;;;;;;5114344;27;20280;-82
2021/08/04 04:32:12;;;;;;;7.67;6.47;;;;;;;;;;5112603;28;20194;-82
2021/08/04 04:34:41;;;;;;;11.30;6.30;;;;;;;;;;5114021;28;20276;-82
2021/08/04 04:37:10;;;;;;;10.67;7.47;;;;;;;;;;5114025;27;20388;-82
2021/08/04 04:39:39;;;;;;;11.70;6.97;;;;;;;;;;5113923;28;20280;-82
2021/08/04 04:42:09;;;;;;;10.27;6.87;;;;;;;;;;5113914;28;20293;-82
2021/08/04 04:44:38;;;;;;;10.97;7.30;;;;;;;;;;5117346;27;20281;-82
2021/08/04 04:47:09;;;;;;;10.63;7.13;;;;;;;;;;5134634;27;20287;-81
2021/08/04 04:49:38;;;;;;;12.23;7.53;;;;;;;;;;5134374;27;20727;-81
2021/08/04 04:52:07;;;;;;;10.87;7.30;;;13.90;99.90;;;;;;5134467;27;20236;-82
2021/08/04 04:54:36;;;;;;;9.13;7.57;;;;;;;;;;5133266;27;20308;-83
2021/08/04 04:57:06;;;;;;;10.13;7.43;;;;;;;;;;5134014;27;20312;-82
2021/08/04 04:59:35;;;;;;;9.07;7.27;;;;;;;;;;5133875;27;20283;-83
2021/08/04 05:02:07;;;;;;;8.70;6.90;;;;;;;;;;5134209;27;20291;-82
2021/08/04 05:04:41;;;;;;;8.80;6.80;;;;;;;;;;5134244;27;20595;-82
2021/08/04 05:07:11;;;;;;;8.77;7.17;;;;;;;;;;5133359;27;20228;-82
2021/08/04 05:09:41;;;;;;;10.03;7.40;;;;;;;;;;5133721;27;20248;-82
2021/08/04 05:12:14;;;;;;;9.20;7.00;;;;;;;;;;5125612;27;20233;-82
2021/08/04 05:14:46;;;;;;;8.77;6.97;;;;;;;;;;5113404;28;20375;-82
2021/08/04 05:17:19;;;;;;;8.97;6.70;;;;;;;;;;5112932;28;20798;-81
2021/08/04 05:19:52;;;;;;;9.20;6.13;;;;;;;;;;5113280;28;20229;-82
2021/08/04 05:22:24;;;;;;;8.00;6.30;;;;;;;;;;5112405;28;20289;-82
2021/08/04 05:24:56;;;;;;;7.60;6.40;;;;;;;;;;5113401;28;20292;-82
2021/08/04 05:27:27;;;;;;;7.23;6.17;;;;;;;;;;5112866;28;20285;-81
2021/08/04 05:29:57;;;;;;;7.10;5.63;;;;;;;;;;5113118;28;20232;-82
2021/08/04 05:32:29;;;;;;;8.20;5.93;;;;;;;;;;5113228;28;20221;-82
2021/08/04 05:35:03;;;;;;;6.60;5.57;;;;;;;;;;5113098;28;20285;-82
2021/08/04 05:37:33;;;;;;;6.30;5.33;;;;;;;;;;5112653;28;20240;-82
2021/08/04 05:40:05;;;;;;;7.70;5.97;;;;;;;;;;5112627;28;20288;-82
2021/08/04 05:42:36;;;;;;;6.40;5.33;;;;;;;;;;5112963;28;20250;-83
2021/08/04 05:45:06;;;;;;;7.33;5.53;;;;;;;;;;5113293;28;20244;-82
2021/08/04 05:47:37;;;;;;;7.27;5.63;;;;;;;;;;5133568;27;20280;-82
2021/08/04 05:50:09;;;;;;;6.87;5.50;;;;;;;;;;5133131;27;20228;-82
2021/08/04 05:52:40;;;;;;;6.50;5.80;;;;;;;;;;5132754;27;20315;-82
2021/08/04 05:55:11;;;;;;;7.50;5.83;;;;;;;;;;5133078;27;20232;-82
2021/08/04 05:57:41;;;;;;;7.73;6.00;;;;;;;;;;5133094;27;20554;-82
2021/08/04 06:00:12;;;;;;;8.73;6.50;;;;;;;;;;5133271;27;20233;-82
2021/08/04 06:02:42;;;;;;;8.57;7.60;;;;;;;;;;5133243;27;20205;-82
2021/08/04 06:05:14;;;;;;;11.90;8.57;;;;;;;;;;5133658;27;20232;-83
2021/08/04 06:07:44;;;;;;;11.30;8.73;;;;;;;;;;5137206;27;20288;-82
2021/08/04 06:10:15;;;;;;;11.13;9.27;;;;;;;;;;5137100;27;20733;-82
2021/08/04 06:12:45;;;;;;;9.30;8.00;;;;;;;;;;5137441;27;20240;-82
2021/08/04 06:15:15;;;;;;;10.77;8.10;;;;;;;;;;5136997;27;20236;-82
2021/08/04 06:17:45;;;;;;;9.80;8.27;;;;;;;;;;5137458;27;20295;-83
2021/08/04 06:20:17;;;;;;;9.93;7.87;;;;;;;;;;5136914;27;20256;-82
2021/08/04 06:22:47;;;;;;;11.80;7.97;;;;;;;;;;5137266;27;20573;-82
2021/08/04 06:25:17;;;;;;;9.07;7.87;;;;;;;;;;5137484;27;20240;-83
2021/08/04 06:27:49;;;;;;;10.40;7.40;;;;;;;;;;5136897;27;20256;-83
2021/08/04 06:30:17;;;;;;;8.53;6.33;;;;;;;;;;5136764;27;20193;-83
2021/08/04 06:32:46;;;;;;;8.33;6.57;;;;;;;;;;5137037;27;20224;-82
2021/08/04 06:35:16;;;;;;;6.97;6.17;;;;;;;;;;5136913;27;20279;-82
2021/08/04 06:37:44;;;;;;;7.97;6.27;;;;;;;;;;5137064;27;20282;-82
2021/08/04 06:40:13;;;;;;;7.23;5.90;;;;;;;;;;5136662;27;20307;-83
2021/08/04 06:42:43;;;;;;;8.60;6.57;;;;;;;;;;5137145;27;20207;-82
2021/08/04 06:45:13;;;;;;;7.60;5.97;;;;;;;;;;5136875;27;20276;-82
2021/08/04 06:47:43;;;;;;;7.37;6.00;;;;;;;;;;5136520;27;20680;-83
2021/08/04 06:50:13;;;;;;;8.27;6.10;;;;;;;;;;5136414;27;20314;-82
2021/08/04 06:52:45;;;;;;;7.50;5.57;;;;;;;;;;5136694;27;20355;-82
2021/08/04 06:55:13;;;;;;;7.63;6.03;;;;;;;;;;5136559;27;20292;-82
2021/08/04 06:57:43;;;;;;;7.20;6.07;;;;;;;;;;5136564;27;20224;-82
2021/08/04 07:00:14;;;;;;;7.23;6.07;;;;;;;;;;5136656;27;20311;-83
2021/08/04 07:02:44;;;;;;;8.20;6.63;;;;;;;;;;5136305;27;20280;-82
2021/08/04 07:05:17;;;;;;;7.63;6.10;;;;;;;;;;5136427;27;20668;-82
2021/08/04 07:07:49;;;;;;;7.30;5.97;;;;;;;;;;5136632;27;20197;-82
2021/08/04 07:10:19;;;;;;;6.80;5.80;;;;;;;;;;5136567;27;20284;-82
2021/08/04 07:12:49;;;;;;;7.03;6.00;;;;;;;;;;5135023;27;20672;-83
2021/08/04 07:15:19;;;;;;;6.10;5.37;;;;;;;;;;5115814;28;20197;-82
2021/08/04 07:17:51;;;;;;;7.83;5.40;;;;;;;;;;5114818;28;20904;-83
2021/08/04 07:20:22;;;;;;;5.93;5.30;;;;;;;;;;5115132;28;20218;-83
2021/08/04 07:22:54;;;;;;;5.87;5.20;;;;;;;;;;5115487;28;20259;-83
2021/08/04 07:25:24;;;;;;;5.97;5.10;;;;;;;;;;5115254;28;20983;-83
2021/08/04 07:27:54;;;;;;;5.77;5.17;;;;;;;;;;5115571;28;20239;-84
2021/08/04 07:30:25;;;;;;;6.00;4.60;;;;;;;;;;5115250;28;20236;-83
2021/08/04 07:32:55;;;;;;;5.40;4.37;;;;;;;;;;5114832;28;20205;-83
2021/08/04 07:35:26;;;;;;;6.83;4.40;;;;;;;;;;5115350;28;20628;-83
2021/08/04 07:37:58;;;;;;;5.10;4.50;;;;;;;;;;5115323;28;20297;-83
2021/08/04 07:40:28;;;;;;;6.23;4.67;;;;;;;;;;5114791;28;20673;-83
2021/08/04 07:42:58;;;;;;;5.10;4.60;;;;;;;;;;5115440;28;20714;-83
2021/08/04 07:45:28;;;;;;;5.67;4.53;;;;;;;;;;5114961;28;20236;-83
2021/08/04 07:47:59;;;;;;;6.53;4.60;;;;;;;;;;5123968;27;20244;-83
2021/08/04 07:50:29;;;;;;;5.47;4.77;;;;;;;;;;5135269;27;20687;-84
2021/08/04 07:53:03;;;;;;;5.43;4.90;;;;;;;;;;5135101;27;20321;-83
2021/08/04 07:55:37;;;;;;;6.27;4.80;;;;;;;;;;5135103;27;20227;-83
2021/08/04 07:58:06;;;;;;;6.83;4.73;;;;;;;;;;5135204;27;20272;-83
2021/08/04 08:00:36;;;;;;;5.50;4.43;;;;;;;;;;5135101;27;20259;-83
2021/08/04 08:03:05;;;;;;;5.70;4.30;;;;;;;;;;5135050;27;20209;-82
2021/08/04 08:05:32;;;;;;;4.63;4.17;;;;;;;;;;5135203;27;20706;-83
2021/08/04 08:08:03;;;;;;;6.03;3.93;;;;;;;;;;5135371;27;20283;-83
2021/08/04 08:10:30;;;;;;;4.10;3.50;;;;;;;;;;5135098;27;20193;-83
2021/08/04 08:12:58;;;;;;;4.43;3.43;;;;;;;;;;5134967;27;20288;-83
2021/08/04 08:15:25;;;;;;;3.13;2.80;;;;;;;;;;5118567;27;20202;-82
2021/08/04 08:17:52;;;;;;;4.20;3.40;;;;;;;;;;5114592;28;20285;-83
2021/08/04 08:20:20;;;;;;;8.40;7.50;;;;;;;;;;5114613;28;20305;-83
2021/08/04 08:22:47;;;;;;;4.63;4.13;;;;;;;;;;5114170;27;20593;-82
2021/08/04 08:25:17;;;;;;;4.57;4.17;;;;;;;;;;5114502;28;20284;-83
2021/08/04 08:27:45;;;;;;;2.90;2.63;;;;;;;;;;5113338;28;20209;-82
2021/08/04 08:30:13;;;;;;;2.60;2.20;;;;;;;;;;5113857;28;20194;-83
2021/08/04 08:32:40;;;;;;;3.30;2.00;;;;;;;;;;5113988;28;20732;-83
2021/08/04 08:35:08;;;;;;;2.23;1.90;;;;;;;;;;5114067;28;20225;-82
2021/08/04 08:37:36;;;;;;;2.70;2.00;;;;;;;;;;5113855;28;20229;-83
2021/08/04 08:40:03;;;;;;;2.37;2.10;;;;;;;;;;5113710;28;20280;-83
2021/08/04 08:42:33;;;;;;;2.40;2.20;;;;;;;;;;5113670;28;20312;-82
2021/08/04 08:45:00;;;;;;;2.20;1.80;;;;;;;;;;5113639;28;20248;-83
2021/08/04 08:47:28;;;;;;;2.67;2.20;;;;;;;;;;5114007;28;20229;-83
2021/08/04 08:49:55;;;;;;;2.27;2.07;;;;;;;;;;5129138;27;20292;-83
2021/08/04 08:52:22;;;;;;;2.43;2.10;;;;;;;;;;5133951;27;20264;-83
2021/08/04 08:54:50;;;;;;;3.13;1.97;;;;;;;;;;5134415;27;20295;-83
2021/08/04 08:57:17;;;;;;;2.50;2.30;;;;;;;;;;5134290;27;20292;-83
2021/08/04 08:59:46;;;;;;;2.23;1.93;;;;;;;;;;5133717;27;20793;-83
2021/08/04 09:02:13;;;;;;;2.90;2.07;;;;;;;;;;5134048;27;20307;-83
2021/08/04 09:04:41;;;;;;;3.50;2.53;;;;;;;;;;5134190;27;20280;-82
2021/08/04 09:07:08;;;;;;;3.10;2.70;;;;;;;;;;5134147;27;20283;-83
2021/08/04 09:09:36;;;;;;;3.10;2.80;;;;;;;;;;5134677;27;20327;-82
2021/08/04 09:12:14;;;;;;;3.33;2.50;;;;;;;;;;5134152;27;20564;-83
2021/08/04 09:14:43;;;;;;;3.40;2.40;;;;;;;;;;5129998;27;20311;-82
2021/08/04 09:17:12;;;;;;;3.67;2.30;;;;;;;;;;5114566;27;20198;-82
2021/08/04 09:19:41;;;;;;;2.50;2.30;;;;;;;;;;5114640;27;20229;-82
2021/08/04 09:22:09;;;;;;;2.70;2.50;;;;;;;;;;5114588;28;20274;-82
2021/08/04 09:24:55;;;;;;;2.67;2.47;;;;;;;;;;5115039;28;20288;-83
2021/08/04 09:27:22;;;;;;;2.80;2.40;;;;;;;;;;5114537;28;20201;-83
2021/08/04 09:29:59;;;;;;;3.17;2.17;;;;;;;;;;5112794;28;20745;-83
2021/08/04 09:32:28;;;;;;;2.37;2.13;;;;;;;;;;5113871;28;20200;-82
2021/08/04 09:34:56;;;;;;;2.50;2.30;;;;;;;;;;5114366;28;20584;-83
2021/08/04 09:37:23;;;;;;;2.60;2.40;;;;;;;;;;5114466;27;20229;-82
2021/08/04 09:39:58;;;;;;;2.57;2.37;;;;;;;;;;5113556;28;20233;-83
2021/08/04 09:42:40;;;;;;;3.10;2.43;;;;;;;;;;5113835;28;20231;-82
2021/08/04 09:45:08;;;;;;;3.90;2.60;;;;;;;;;;5114026;28;20288;-83
2021/08/04 09:47:37;;;;;;;2.43;2.23;;;;;;;;;;5113606;28;20251;-82
2021/08/04 09:50:05;;;;;;;2.70;2.40;;;;;;;;;;5114392;28;20292;-83
2021/08/04 09:52:32;;;;;;;3.10;2.63;;;;;;;;;;5115634;28;20271;-82
2021/08/04 09:55:11;;;;;;;3.27;2.60;;;;;;;;;;5115269;28;20280;-82
2021/08/04 09:57:42;;;;;;;3.37;2.83;;;;;;;;;;5115233;28;20229;-82
2021/08/04 10:00:10;;;;;;;3.10;2.67;;;;;;;;;;5114873;28;20284;-83
2021/08/04 10:02:39;;;;;;;2.93;2.67;;;;;;;;;;5115326;28;20756;-83
2021/08/04 10:05:16;;;;;;;3.53;2.70;;;;;;;;;;5115359;28;20644;-83
2021/08/04 10:08:06;;;;;;;2.90;2.50;;;;;;;;;;5115630;28;20233;-83
2021/08/04 10:10:35;;;;;;;3.07;2.40;;;;;;;;;;5115288;27;20228;-83
2021/08/04 10:13:02;;;;;;;3.50;2.50;;;;;;;;;;5114741;28;20196;-82
2021/08/04 10:15:30;;;;;;;2.47;2.27;;;;;;;;;;5115229;28;20641;-83
2021/08/04 10:17:59;;;;;;;2.07;1.87;;;;;;;;;;5115176;28;20281;-82
2021/08/04 10:20:26;;;;;;;1.90;1.70;;;;;;;;;;5115116;28;20230;-82
2021/08/04 10:22:54;;;;;;;2.00;1.80;;;;;;;;;;5115040;28;20229;-83
2021/08/04 10:25:22;;;;;;;3.10;1.90;;;;;;;;;;5115227;28;20265;-82
2021/08/04 10:27:49;;;;;;;2.10;1.90;;;;;;;;;;5115354;28;20289;-83
2021/08/04 10:30:16;;;;;;;2.03;1.50;;;;;;;;;;5114538;28;20340;-83
2021/08/04 10:32:44;;;;;;;2.50;1.73;;;;;;;;;;5114737;28;20232;-83
2021/08/04 10:35:13;;;;;;;1.50;1.40;;;;;;;;;;5114135;28;20275;-83
2021/08/04 10:37:42;;;;;;;2.53;1.70;;;;;;;;;;5113658;28;20712;-83
2021/08/04 10:40:10;;;;;;;1.60;1.50;;;;;;;;;;5113624;28;20198;-82
2021/08/04 10:42:40;;;;;;;2.27;1.63;;;;;;;;;;5113249;28;20308;-83
2021/08/04 10:45:27;;;;;;;2.00;1.80;;;;;;;;;;5113694;28;20288;-82
2021/08/04 10:47:56;;;;;;;2.90;1.70;;;;;;;;;;5112533;28;20751;-82
2021/08/04 10:50:25;;;;;;;1.97;1.70;;;;;;;;;;5112331;28;20201;-82
2021/08/04 10:53:06;;;;;;;1.80;1.70;;;;;;;;;;5115567;28;20324;-82
2021/08/04 10:55:53;;;;;;;2.03;1.80;;;;;;;;;;5117395;28;20194;-82
2021/08/04 10:58:21;;;;;;;2.13;1.93;;;;;;;;;;5117508;28;20204;-82
2021/08/04 11:00:48;;;;;;;2.10;1.90;;;;;;;;;;5117414;27;20218;-82
2021/08/04 11:03:34;;;;;;;3.60;1.73;;;;;;;;;;5116069;28;20222;-82
2021/08/04 11:06:07;;;;;;;2.20;1.80;;;;;;;;;;5117086;28;20622;-83
2021/08/04 11:08:34;;;;;;;1.93;1.60;;;;;;;;;;5118229;28;20264;-83
2021/08/04 11:11:01;;;;;;;2.10;1.77;;;;;;;;;;5117037;28;20744;-82
2021/08/04 11:13:44;;;;;;;1.93;1.73;;;;;;;;;;5116481;27;20305;-83
2021/08/04 11:16:25;;;;;;;2.08;1.70;;;;;;;;;;5116467;28;20197;-82
2021/08/04 11:19:03;;;;;;;1.60;1.50;;;;;;;;;;5117601;27;20684;-83
2021/08/04 11:21:31;;;;;;;1.67;1.50;;;;;;;;;;5117322;27;20578;-83
2021/08/04 11:23:59;;;;;;;2.42;1.67;;;;;;;;;;5117198;28;20761;-83
2021/08/04 11:26:28;;;;;;;1.50;1.40;;;;;;;;;;5116898;28;20205;-83
2021/08/04 11:28:57;;;;;;;1.55;1.42;;;;;;;;;;5117524;27;20301;-83
2021/08/04 11:31:24;;;;;;;1.50;1.23;;;;;;;;;;5117458;28;20288;-82
2021/08/04 11:33:51;;;;;;;1.75;1.52;;;;;;;;;;5117827;28;20689;-82
2021/08/04 11:36:21;;;;;;;1.27;1.13;;;;;;;;;;5118038;28;20222;-83
2021/08/04 11:38:57;;;;;;;1.30;1.20;;;;;;;;;;5117549;27;20202;-82
2021/08/04 11:41:30;;;;;;;1.33;1.23;;;;;;;;;;5117568;28;20289;-83
2021/08/04 11:44:01;;;;;;;1.40;1.30;;;;;;;;;;5116134;27;20202;-82
2021/08/04 11:46:29;;;;;;;2.20;1.30;;;;;;;;;;5116461;28;20217;-82
2021/08/04 11:48:56;;;;;;;1.60;1.20;;;;;;;;;;5116927;28;20289;-83
2021/08/04 11:51:33;;;;;;;1.60;1.40;;;;;;;;;;5116041;28;20218;-82
2021/08/04 11:54:02;;;;;;;1.58;1.48;;;;;;;;;;5115766;28;20292;-82
2021/08/04 11:56:29;;;;;;;1.58;1.48;;;;;;;;;;5116039;28;20225;-82
2021/08/04 11:59:04;;;;;;;1.70;1.60;;;;;;;;;;5115274;28;20248;-83
2021/08/04 12:01:31;;;;;;;1.55;1.42;;;;;;;;;;5115038;28;20284;-83
2021/08/04 12:04:06;;;;;;;2.58;1.58;;;;;;;;;;5114647;28;20239;-83
2021/08/04 12:06:36;;;;;;;1.70;1.60;;;;;;;;;;5114895;28;20209;-83
2021/08/04 12:09:21;;;;;;;2.50;1.83;;;;;;;;;;5113937;28;20245;-83
2021/08/04 12:11:49;;;;;;;2.00;1.80;;;;;;;;;;5114680;27;20692;-83
2021/08/04 12:14:18;;;;;;;1.63;1.52;;;;;;;;;;5115003;28;20225;-83
2021/08/04 12:16:46;;;;;;;1.83;1.70;;;;;;;;;;5115650;28;20635;-82
2021/08/04 12:19:26;;;;;;;2.03;1.83;;;;;;;;;;5115667;28;20280;-83
2021/08/04 12:21:54;;;;;;;1.90;1.70;;;;;;;;;;5115298;28;20226;-83
2021/08/04 12:24:23;;;;;;;2.50;2.30;;;;;;;;;;5115651;28;20242;-83
2021/08/04 12:26:50;;;;;;;2.72;2.08;;;;;;;;;;5115389;28;20864;-83
2021/08/04 12:29:18;;;;;;;2.95;2.20;;;;;;;;;;5114853;28;20233;-83
2021/08/04 12:32:02;;;;;;;2.78;2.55;;;;;;;;;;5115457;28;20641;-83
2021/08/04 12:34:30;;;;;;;2.70;2.25;;;;;;;;;;5116714;28;20204;-83
2021/08/04 12:36:58;;;;;;;2.45;2.05;;;;;;;;;;5115947;28;20250;-83
2021/08/04 12:39:28;;;;;;;2.92;2.63;;;;;;;;;;5114571;28;20285;-83
2021/08/04 12:41:55;;;;;;;3.35;3.00;;;;;;;;;;5114930;28;20292;-83
2021/08/04 12:44:23;;;;;;;3.40;2.70;;;;;;;;;;5114797;28;20749;-83
2021/08/04 12:46:51;;;;;;;3.55;3.00;;;;;;;;;;5115484;28;20219;-83
2021/08/04 12:49:21;;;;;;;3.88;2.95;;;;;;;;;;5114922;28;20201;-83
2021/08/04 12:51:55;;;;;;;3.20;2.90;;;;;;;;;;5114407;28;20213;-83
2021/08/04 12:54:31;;;;;;;3.30;3.00;;;;;;;;;;5114984;28;20264;-83
2021/08/04 12:56:58;;;;;;;3.28;2.97;;;;;;;;;;5115827;28;20673;-83
2021/08/04 12:59:41;;;;;;;3.15;2.85;;;;;;;;;;5115309;28;20674;-82
2021/08/04 13:02:10;;;;;;;3.63;3.03;;;;;;;;;;5114667;28;20271;-83
2021/08/04 13:04:41;;;;;;;3.13;2.70;;;;;;;;;;5114933;28;20285;-83
2021/08/04 13:07:08;;;;;;;3.10;2.80;;;;;;;;;;5114474;28;20202;-83
2021/08/04 13:09:50;;;;;;;3.40;2.67;;;;;;;;;;5114193;28;20253;-83
2021/08/04 13:12:21;;;;;;;3.38;2.75;;;;;;;;;;5111055;27;20233;-84
2021/08/04 13:14:58;;;;;;;4.55;3.05;;;;;;;;;;5112879;28;20634;-83
2021/08/04 13:17:26;;;;;;;2.92;2.63;;;;;;;;;;5113040;28;20236;-83
2021/08/04 13:20:03;;;;;;;3.55;3.20;;;;;;;;;;5112901;28;20297;-83
2021/08/04 13:22:30;;;;;;;5.07;3.38;;;;;;;;;;5112994;28;20299;-83
2021/08/04 13:25:07;;;;;;;4.05;3.38;;;;;;;;;;5113197;28;20281;-82
2021/08/04 13:27:36;;;;;;;3.53;3.22;;;;;;;;;;5113054;28;20212;-83
2021/08/04 13:30:16;;;;;;;3.22;2.92;;;;;;;;;;5112774;28;20208;-83
2021/08/04 13:32:44;;;;;;;4.15;3.42;;;;;;;;;;5113014;28;20189;-83
2021/08/04 13:35:11;;;;;;;3.22;2.92;;;;;;;;;;5112982;28;20280;-84
2021/08/04 13:37:38;;;;;;;3.65;3.17;;;;;;;;;;5113053;28;20292;-82
2021/08/04 13:40:07;;;;;;;3.55;3.25;;;;;;;;;;5112967;27;20281;-83
2021/08/04 13:42:36;;;;;;;3.35;3.03;;;;;;;;;;5112680;28;20260;-83
2021/08/04 13:45:04;;;;;;;3.53;3.23;;;;;;;;;;5112839;27;20289;-83
2021/08/04 13:47:31;;;;;;;4.10;3.13;;;;;;;;;;5112933;28;20197;-82
2021/08/04 13:50:04;;;;;;;3.60;3.30;;;;;;;;;;5112421;28;20314;-83
2021/08/04 13:52:31;;;;;;;7.93;4.23;;;;;;;;;;5112684;28;20206;-83
2021/08/04 13:54:58;;;;;;;7.70;5.70;;;;;;;;;;5112467;28;20240;-83
2021/08/04 13:57:25;;;;;;;7.07;5.88;;;;;;;;;;5112481;28;20348;-83
2021/08/04 13:59:54;;;;;;;7.30;5.90;;;;;;;;;;5112818;28;20193;-83
2021/08/04 14:02:21;;;;;;;7.53;6.13;;;;;;;;;;5112369;28;20293;-83
2021/08/04 14:04:48;;;;;;;7.50;5.82;;;;;;;;;;5112449;28;20231;-83
2021/08/04 14:07:15;;;;;;;6.50;4.93;;;;;;;;;;5112691;28;20205;-83
2021/08/04 14:09:43;;;;;;;6.07;4.72;;;;;;;;;;5112492;28;20304;-83
2021/08/04 14:12:10;;;;;;;5.95;4.20;;;;;;;;;;5112699;28;20285;-83
2021/08/04 14:14:37;;;;;;;4.65;3.60;;;;;;;;;;5112471;28;20684;-83
2021/08/04 14:17:06;;;;;;;3.88;3.47;;;;;;;;;;5112627;28;20227;-84
2021/08/04 14:19:33;;;;;;;3.55;3.25;;;;;;;;;;5112116;28;20289;-83
2021/08/04 14:22:00;;;;;;;4.50;3.30;;;;;;;;;;5112397;28;20193;-83
2021/08/04 14:24:27;;;;;;;3.13;2.83;;;;;;;;;;5112138;27;20278;-83
2021/08/04 14:26:54;;;;;;;4.40;2.90;;;;;;;;;;5114597;28;20285;-83
2021/08/04 14:29:21;;;;;;;3.20;2.90;;;;;;;;;;5116781;28;20237;-83
2021/08/04 14:31:49;;;;;;;3.65;2.75;;;;;;;;;;5116195;27;20284;-83
2021/08/04 14:34:17;;;;;;;3.88;2.83;;;;;;;;;;5116231;28;20225;-83
2021/08/04 14:36:44;;;;;;;4.15;2.70;;;;;;;;;;5116534;28;20240;-83
2021/08/04 14:39:12;;;;;;;3.15;2.72;;;;;;;;;;5116450;28;20229;-84
2021/08/04 14:41:39;;;;;;;2.85;2.55;;;;;;;;;;5116022;27;20655;-83
2021/08/04 14:44:06;;;;;;;3.05;2.65;;;;;;;;;;5116319;28;20260;-83
2021/08/04 14:46:35;;;;;;;3.45;2.90;;;;;;;;;;5116176;28;20229;-83
2021/08/04 14:49:02;;;;;;;3.70;2.60;;;;;;;;;;5116135;28;20625;-83
2021/08/04 14:51:31;;;;;;;2.80;2.60;;;;;;;;;;5116339;28;20208;-83
2021/08/04 14:53:58;;;;;;;3.10;2.33;;;;;;;;;;5115647;28;20260;-83